createdAt,value
2023-03-28T05:27:59.773Z,23.23
2023-03-28T05:30:26.833Z,23.45
2023-03-28T05:32:54.162Z,23.51
2023-03-28T05:35:21.378Z,23.44
2023-03-28T05:37:48.406Z,23.56
2023-03-28T05:40:15.764Z,23.59
2023-03-28T05:42:43.029Z,23.55
2023-03-28T05:45:12.824Z,23.67
2023-03-28T05:47:39.910Z,23.62
2023-03-28T05:50:08.199Z,23.73
2023-03-28T05:52:35.501Z,23.69
2023-03-28T05:55:02.580Z,23.69
2023-03-28T05:57:29.718Z,23.74
2023-03-28T05:59:57.021Z,23.64
2023-03-28T06:02:24.663Z,23.73
2023-03-28T06:04:58.219Z,23.70
2023-03-28T06:07:39.389Z,23.71
2023-03-28T06:10:13.499Z,23.63
2023-03-28T06:12:41.361Z,23.61
2023-03-28T06:15:09.684Z,23.61
2023-03-28T06:17:37.485Z,23.58
2023-03-28T06:20:10.066Z,23.62
2023-03-28T06:22:38.787Z,23.59
2023-03-28T06:25:07.102Z,23.65
2023-03-28T06:27:34.959Z,23.71
2023-03-28T06:30:02.272Z,23.75
2023-03-28T06:32:29.340Z,23.83
2023-03-28T06:34:56.431Z,23.90
2023-03-28T06:37:26.332Z,23.93
2023-03-28T06:39:54.451Z,23.90
2023-03-28T06:42:21.859Z,23.88
2023-03-28T06:44:55.055Z,24.00
2023-03-28T06:47:22.657Z,23.97
2023-03-28T06:49:50.046Z,23.88
2023-03-28T06:52:17.606Z,23.93
2023-03-28T06:54:46.077Z,23.89
2023-03-28T06:57:16.102Z,23.94
2023-03-28T06:59:43.280Z,23.90
2023-03-28T07:02:11.685Z,23.97
2023-03-28T07:04:38.825Z,23.88
2023-03-28T07:07:06.413Z,23.95
2023-03-28T07:09:33.437Z,23.93
2023-03-28T07:12:00.641Z,23.95
2023-03-28T07:14:27.657Z,23.95
2023-03-28T07:16:55.267Z,23.99
2023-03-28T07:19:22.816Z,24.08
2023-03-28T07:21:50.363Z,24.13
2023-03-28T07:24:17.442Z,24.12
2023-03-28T07:26:45.591Z,24.20
2023-03-28T07:29:12.638Z,24.19
2023-03-28T07:31:39.704Z,24.26
2023-03-28T07:34:06.843Z,24.28
2023-03-28T07:36:33.971Z,24.46
2023-03-28T07:39:01.264Z,24.44
2023-03-28T07:41:28.297Z,24.56
2023-03-28T07:43:55.336Z,24.64
2023-03-28T07:46:24.130Z,24.71
2023-03-28T07:48:51.432Z,24.82
2023-03-28T07:51:18.834Z,24.91
2023-03-28T07:53:46.280Z,25.00
2023-03-28T07:56:13.623Z,25.04
2023-03-28T07:58:41.718Z,25.13
2023-03-28T08:01:12.393Z,25.24
2023-03-28T08:03:40.481Z,25.35
2023-03-28T08:06:24.323Z,25.39
2023-03-28T08:08:57.548Z,25.45
2023-03-28T08:11:24.631Z,25.59
2023-03-28T08:13:51.623Z,25.67
2023-03-28T08:16:18.978Z,25.77
2023-03-28T08:18:48.733Z,25.78
2023-03-28T08:21:19.380Z,25.80
2023-03-28T08:23:46.455Z,25.94
2023-03-28T08:26:13.531Z,25.97
2023-03-28T08:28:41.574Z,25.99
2023-03-28T08:31:17.220Z,26.14
2023-03-28T08:33:51.799Z,26.24
2023-03-28T08:36:20.218Z,26.37
2023-03-28T08:38:50.219Z,26.47
2023-03-28T08:41:54.070Z,26.59
2023-03-28T08:44:48.308Z,26.57
2023-03-28T08:47:32.131Z,26.65
2023-03-28T08:50:05.561Z,26.75
2023-03-28T08:52:33.266Z,26.81
2023-03-28T08:55:35.641Z,26.96
2023-03-28T08:58:04.665Z,27.06
2023-03-28T09:00:37.113Z,27.19
2023-03-28T09:03:12.900Z,27.38
2023-03-28T09:05:48.469Z,27.53
2023-03-28T09:08:39.865Z,27.60
2023-03-28T09:11:15.765Z,27.77
2023-03-28T09:13:54.703Z,27.93
2023-03-28T09:16:24.650Z,28.04
2023-03-28T09:19:40.678Z,28.16
2023-03-28T09:22:32.056Z,28.22
2023-03-28T09:25:12.508Z,28.34
2023-03-28T09:27:58.199Z,28.52
2023-03-28T09:30:33.699Z,28.54
2023-03-28T09:33:06.397Z,28.77
2023-03-28T09:35:34.854Z,29.00
2023-03-28T09:38:05.143Z,29.51
2023-03-28T09:40:36.033Z,31.05
2023-03-28T09:43:33.774Z,33.07
2023-03-28T09:46:05.489Z,34.55
2023-03-28T09:48:35.781Z,35.86
2023-03-28T09:51:05.888Z,36.98
2023-03-28T09:53:37.268Z,37.27
2023-03-28T09:56:11.718Z,38.25
2023-03-28T09:58:52.832Z,39.20
2023-03-28T10:01:47.195Z,40.00
2023-03-28T10:04:17.999Z,40.55
2023-03-28T10:06:46.611Z,41.25
2023-03-28T10:09:13.806Z,41.87
2023-03-28T10:12:10.499Z,42.51
2023-03-28T10:14:38.671Z,42.91
2023-03-28T10:17:19.614Z,43.27
2023-03-28T10:19:48.623Z,43.65
2023-03-28T10:22:28.477Z,43.99
2023-03-28T10:24:56.111Z,43.61
2023-03-28T10:27:33.453Z,44.19
2023-03-28T10:30:21.166Z,44.71
2023-03-28T10:33:17.026Z,45.15
2023-03-28T10:36:03.578Z,45.56
2023-03-28T10:38:50.837Z,45.74
2023-03-28T10:41:29.157Z,46.02
2023-03-28T10:43:57.288Z,46.25
2023-03-28T10:46:45.721Z,46.17
2023-03-28T10:49:15.917Z,45.91
2023-03-28T10:51:44.114Z,45.96
2023-03-28T10:54:22.942Z,46.20
2023-03-28T10:57:13.361Z,46.38
2023-03-28T10:59:41.889Z,46.95
2023-03-28T11:02:28.873Z,47.46
2023-03-28T11:05:14.174Z,47.74
2023-03-28T11:08:08.723Z,47.64
2023-03-28T11:11:03.522Z,47.64
2023-03-28T11:13:48.354Z,47.59
2023-03-28T11:16:41.599Z,47.68
2023-03-28T11:19:21.404Z,47.70
2023-03-28T11:22:16.310Z,48.05
2023-03-28T11:25:00.916Z,48.03
2023-03-28T11:27:42.569Z,48.35
2023-03-28T11:30:16.039Z,48.52
2023-03-28T11:33:04.331Z,48.90
2023-03-28T11:35:34.416Z,49.20
2023-03-28T11:38:11.293Z,49.36
2023-03-28T11:40:51.145Z,49.71
2023-03-28T11:43:34.993Z,49.71
2023-03-28T11:46:25.057Z,49.53
2023-03-28T11:49:16.526Z,49.51
2023-03-28T11:52:36.833Z,49.46
2023-03-28T11:55:16.107Z,49.49
2023-03-28T11:57:55.722Z,49.63
2023-03-28T12:00:40.959Z,49.76
2023-03-28T12:03:37.576Z,49.98
2023-03-28T12:06:07.808Z,49.94
2023-03-28T12:09:21.474Z,50.25
2023-03-28T12:12:03.980Z,50.09
2023-03-28T12:14:50.086Z,50.00
2023-03-28T12:17:27.184Z,49.73
2023-03-28T12:19:54.884Z,49.91
2023-03-28T12:22:50.883Z,50.06
2023-03-28T12:25:46.563Z,50.10
2023-03-28T12:28:43.925Z,50.22
2023-03-28T12:31:29.064Z,50.28
2023-03-28T12:34:11.349Z,50.33
2023-03-28T12:36:56.400Z,49.91
2023-03-28T12:39:38.539Z,49.70
2023-03-28T12:42:09.649Z,49.39
2023-03-28T12:44:54.856Z,49.33
2023-03-28T12:47:41.741Z,49.35
2023-03-28T12:50:33.395Z,49.39
2023-03-28T12:53:01.901Z,49.65
2023-03-28T12:55:29.092Z,49.98
2023-03-28T12:58:22.572Z,50.29
2023-03-28T13:01:07.891Z,50.11
2023-03-28T13:03:51.926Z,50.04
2023-03-28T13:06:34.208Z,50.22
2023-03-28T13:09:28.681Z,50.20
2023-03-28T13:12:21.399Z,49.76
2023-03-28T13:15:14.302Z,49.91
2023-03-28T13:18:08.470Z,49.68
2023-03-28T13:20:46.215Z,49.29
2023-03-28T13:23:16.837Z,49.35
2023-03-28T13:26:03.056Z,49.31
2023-03-28T13:28:33.117Z,49.36
2023-03-28T13:31:06.860Z,49.54
2023-03-28T13:33:38.316Z,49.34
2023-03-28T13:36:05.829Z,49.44
2023-03-28T13:38:46.078Z,49.70
2023-03-28T13:41:30.218Z,50.02
2023-03-28T13:44:01.123Z,50.31
2023-03-28T13:46:34.921Z,50.38
2023-03-28T13:49:11.010Z,50.37
2023-03-28T13:51:54.974Z,50.21
2023-03-28T13:54:24.820Z,50.07
2023-03-28T13:56:54.280Z,49.92
2023-03-28T13:59:27.142Z,50.11
2023-03-28T14:01:57.711Z,50.00
2023-03-28T14:04:27.539Z,49.96
2023-03-28T14:06:55.903Z,49.88
2023-03-28T14:09:29.145Z,49.93
2023-03-28T14:12:00.534Z,49.93
2023-03-28T14:14:36.585Z,49.91
2023-03-28T14:17:08.031Z,49.91
2023-03-28T14:19:46.735Z,49.90
2023-03-28T14:22:21.138Z,49.79
2023-03-28T14:24:52.275Z,49.80
2023-03-28T14:27:36.469Z,49.56
2023-03-28T14:30:15.550Z,49.18
2023-03-28T14:32:59.278Z,48.36
2023-03-28T14:35:32.251Z,47.98
2023-03-28T14:38:01.730Z,47.91
2023-03-28T14:40:35.725Z,47.83
2023-03-28T14:43:24.166Z,47.42
2023-03-28T14:45:54.435Z,46.62
2023-03-28T14:48:27.629Z,45.80
2023-03-28T14:50:56.589Z,45.39
2023-03-28T14:53:26.286Z,45.26
2023-03-28T14:56:11.489Z,44.98
2023-03-28T14:58:42.503Z,45.31
2023-03-28T15:01:13.936Z,45.33
2023-03-28T15:03:46.125Z,45.38
2023-03-28T15:06:18.924Z,45.42
2023-03-28T15:08:46.281Z,45.08
2023-03-28T15:11:22.704Z,44.76
2023-03-28T15:13:51.579Z,44.70
2023-03-28T15:16:26.440Z,44.88
2023-03-28T15:18:59.050Z,44.75
2023-03-28T15:21:27.436Z,44.66
2023-03-28T15:24:01.567Z,44.49
2023-03-28T15:26:34.882Z,44.10
2023-03-28T15:29:03.322Z,44.19
2023-03-28T15:31:31.872Z,44.18
2023-03-28T15:33:59.247Z,44.05
2023-03-28T15:36:32.631Z,43.23
2023-03-28T15:39:02.105Z,41.69
2023-03-28T15:41:40.910Z,40.33
2023-03-28T15:44:36.317Z,39.11
2023-03-28T15:47:21.339Z,38.12
2023-03-28T15:49:51.018Z,37.75
2023-03-28T15:52:21.513Z,37.26
2023-03-28T15:54:56.767Z,36.83
2023-03-28T15:57:28.221Z,36.51
2023-03-28T15:59:56.560Z,36.19
2023-03-28T16:02:23.568Z,36.04
2023-03-28T16:05:28.495Z,35.89
2023-03-28T16:07:55.891Z,35.52
2023-03-28T16:10:25.353Z,35.23
2023-03-28T16:12:52.792Z,35.07
2023-03-28T16:15:20.577Z,34.78
2023-03-28T16:17:49.057Z,34.78
2023-03-28T16:20:19.746Z,34.54
2023-03-28T16:22:47.013Z,34.40
2023-03-28T16:25:14.919Z,34.25
2023-03-28T16:27:43.744Z,34.00
2023-03-28T16:30:34.078Z,33.81
2023-03-28T16:33:01.250Z,33.71
2023-03-28T16:35:29.016Z,33.71
2023-03-28T16:37:56.709Z,33.70
2023-03-28T16:40:23.770Z,33.58
2023-03-28T16:42:51.328Z,33.50
2023-03-28T16:45:20.646Z,33.38
2023-03-28T16:47:48.016Z,33.28
2023-03-28T16:50:15.700Z,33.02
2023-03-28T16:52:42.823Z,32.69
2023-03-28T16:55:12.582Z,32.66
2023-03-28T16:57:39.617Z,32.39
2023-03-28T17:00:09.303Z,32.46
2023-03-28T17:02:37.029Z,32.39
2023-03-28T17:05:05.028Z,32.34
2023-03-28T17:07:32.068Z,32.37
2023-03-28T17:09:59.108Z,32.35
2023-03-28T17:12:26.491Z,32.29
2023-03-28T17:14:53.642Z,32.33
2023-03-28T17:17:20.754Z,32.26
2023-03-28T17:19:47.798Z,32.32
2023-03-28T17:22:14.938Z,32.31
2023-03-28T17:24:42.054Z,32.34
2023-03-28T17:27:09.215Z,32.34
2023-03-28T17:29:36.442Z,32.26
2023-03-28T17:32:03.531Z,32.33
2023-03-28T17:34:36.065Z,32.26
2023-03-28T17:37:04.366Z,32.16
2023-03-28T17:39:32.045Z,32.18
2023-03-28T17:41:59.047Z,32.05
2023-03-28T17:44:29.203Z,31.81
2023-03-28T17:46:57.901Z,31.66
2023-03-28T17:49:29.879Z,31.58
2023-03-28T17:51:57.457Z,31.36
2023-03-28T17:54:24.875Z,31.40
2023-03-28T17:56:52.948Z,31.25
2023-03-28T17:59:20.250Z,31.34
2023-03-28T18:01:47.409Z,31.31
2023-03-28T18:04:16.455Z,31.23
2023-03-28T18:06:43.610Z,31.05
2023-03-28T18:09:11.034Z,30.88
2023-03-28T18:11:39.593Z,30.71
2023-03-28T18:14:08.769Z,30.70
2023-03-28T18:16:36.529Z,30.75
2023-03-28T18:19:07.069Z,30.63
2023-03-28T18:21:34.156Z,30.56
2023-03-28T18:24:01.177Z,30.52
2023-03-28T18:26:29.110Z,30.51
2023-03-28T18:28:56.296Z,30.48
2023-03-28T18:31:28.184Z,30.38
2023-03-28T18:33:57.501Z,30.35
2023-03-28T18:36:25.115Z,30.36
2023-03-28T18:38:53.309Z,30.29
2023-03-28T18:41:20.467Z,30.36
2023-03-28T18:43:47.940Z,30.44
2023-03-28T18:46:16.213Z,30.38
2023-03-28T18:48:45.119Z,30.35
2023-03-28T18:51:12.222Z,30.36
2023-03-28T18:53:39.313Z,30.46
2023-03-28T18:56:07.977Z,30.40
2023-03-28T18:58:37.528Z,30.35
2023-03-28T19:01:06.078Z,30.42
2023-03-28T19:03:42.684Z,30.28
2023-03-28T19:06:12.223Z,30.40
2023-03-28T19:08:39.706Z,30.31
2023-03-28T19:11:15.175Z,30.21
2023-03-28T19:13:42.797Z,30.19
2023-03-28T19:16:15.858Z,30.25
2023-03-28T19:18:44.883Z,30.09
2023-03-28T19:21:12.815Z,30.12
2023-03-28T19:23:41.639Z,30.07
2023-03-28T19:26:14.321Z,30.09
2023-03-28T19:28:42.643Z,29.99
2023-03-28T19:31:12.613Z,30.09
2023-03-28T19:33:43.364Z,30.05
2023-03-28T19:36:11.630Z,30.02
2023-03-28T19:38:52.105Z,29.98
2023-03-28T19:41:24.771Z,29.96
2023-03-28T19:43:52.162Z,29.91
2023-03-28T19:47:13.406Z,29.88
2023-03-28T19:49:40.740Z,29.62
2023-03-28T19:52:10.187Z,29.58
2023-03-28T19:54:37.771Z,29.61
2023-03-28T19:57:07.957Z,29.65
2023-03-28T19:59:35.706Z,29.60
2023-03-28T20:02:02.943Z,29.54
2023-03-28T20:04:38.404Z,29.43
2023-03-28T20:07:06.036Z,29.27
2023-03-28T20:09:35.309Z,29.27
2023-03-28T20:12:02.876Z,29.19
2023-03-28T20:14:30.138Z,29.25
2023-03-28T20:16:58.142Z,29.28
2023-03-28T20:20:18.400Z,29.25
2023-03-28T20:22:45.421Z,28.98
2023-03-28T20:25:16.295Z,29.08
2023-03-28T20:27:44.488Z,29.15
2023-03-28T20:30:38.181Z,29.16
2023-03-28T20:33:15.944Z,29.02
2023-03-28T20:35:58.243Z,29.10
2023-03-28T20:38:28.165Z,29.12
2023-03-28T20:40:55.174Z,29.18
2023-03-28T20:43:29.432Z,29.17
2023-03-28T20:46:01.869Z,29.05
2023-03-28T20:48:36.957Z,29.01
2023-03-28T20:51:14.730Z,29.04
2023-03-28T20:53:43.911Z,29.05
2023-03-28T20:56:13.780Z,29.02
2023-03-28T20:58:42.926Z,29.01
2023-03-28T21:01:12.998Z,28.97
2023-03-28T21:03:51.216Z,28.84
2023-03-28T21:06:29.728Z,28.86
2023-03-28T21:09:02.036Z,28.79
2023-03-28T21:11:31.924Z,28.75
2023-03-28T21:14:12.878Z,28.68
2023-03-28T21:16:40.338Z,28.64
2023-03-28T21:19:07.556Z,28.61
2023-03-28T21:21:35.494Z,28.52
2023-03-28T21:24:03.850Z,28.46
2023-03-28T21:26:31.881Z,28.40
2023-03-28T21:28:59.654Z,28.33
2023-03-28T21:31:28.857Z,28.39
2023-03-28T21:33:58.003Z,28.26
2023-03-28T21:36:27.333Z,28.25
2023-03-28T21:38:55.649Z,28.25
2023-03-28T21:41:22.897Z,28.16
2023-03-28T21:43:50.853Z,28.01
2023-03-28T21:46:21.232Z,27.94
2023-03-28T21:48:48.803Z,27.99
2023-03-28T21:51:17.272Z,27.94
2023-03-28T21:53:44.751Z,27.86
2023-03-28T21:56:16.859Z,27.77
2023-03-28T21:58:45.015Z,27.67
2023-03-28T22:01:18.040Z,27.67
2023-03-28T22:03:47.260Z,27.63
2023-03-28T22:06:15.840Z,27.64
2023-03-28T22:08:45.291Z,27.59
2023-03-28T22:11:14.706Z,27.59
2023-03-28T22:13:45.179Z,27.48
2023-03-28T22:16:15.902Z,27.53
2023-03-28T22:18:49.944Z,27.52
2023-03-28T22:21:17.953Z,27.38
2023-03-28T22:23:47.728Z,27.40
2023-03-28T22:26:16.051Z,27.37
2023-03-28T22:28:43.286Z,27.36
2023-03-28T22:31:10.701Z,27.27
2023-03-28T22:33:38.413Z,27.29
2023-03-28T22:36:05.955Z,27.24
2023-03-28T22:38:36.139Z,27.17
2023-03-28T22:41:03.458Z,27.12
2023-03-28T22:43:33.457Z,27.12
2023-03-28T22:46:01.161Z,27.12
2023-03-28T22:48:30.390Z,27.09
2023-03-28T22:51:00.763Z,27.08
2023-03-28T22:53:29.293Z,27.02
2023-03-28T22:55:57.948Z,27.00
2023-03-28T22:58:25.261Z,26.97
2023-03-28T23:00:53.134Z,26.93
2023-03-28T23:03:20.151Z,26.93
